Liberty — WDC2845 — position and weather

sailwx.info

Track history (hours):
 
Tides and Currents Weather Stations Pressure Air Temp Water Temp Dewpoint Dewpoint Depression Visibility Wind Speed Wind Dir Waves Ship Positions

Liberty

Owner: AMNAV Maritime Corporation, Oakland, CA. More information available from US FCC via Universal Licensing System and Coast Guard Vessel Documentation Center.

Last reported at 2017-Dec-17 13:30 UTC. Time now 2017-Dec-17 13:54 UTC.
Position N 37°49' W 122°19'.

Length 20 m; draft 4.6 m.

Type: Towing. MMSI: 366998510.

Date/timePositionNaut miles runAvg speedWind from/ knotsBaromVisibWave heightAir tempDewpointWater temp
2017-Dec-17 13:30N 37°49' W 122°19'0 0.1
2017-Dec-17 13:00N 37°49' W 122°19'0 0.0
2017-Dec-17 12:30N 37°49' W 122°19'0 0.0
2017-Dec-17 12:00N 37°49' W 122°19'0 0.1
2017-Dec-17 11:31N 37°49' W 122°19'0 0.1
2017-Dec-17 11:00N 37°49' W 122°19'0 0.0
2017-Dec-17 10:30N 37°49' W 122°19'0 0.1
2017-Dec-17 10:00N 37°49' W 122°19'0 0.1
2017-Dec-17 09:30N 37°49' W 122°19'0 0.0
2017-Dec-17 09:00N 37°49' W 122°19'0 0.0
2017-Dec-17 08:31N 37°49' W 122°19'0 0.0
2017-Dec-17 08:00N 37°49' W 122°19'0 0.0
2017-Dec-17 07:30N 37°49' W 122°19'0 0.1
2017-Dec-17 07:01N 37°49' W 122°19'0 0.0
2017-Dec-17 06:31N 37°49' W 122°19'0 0.0
2017-Dec-17 06:01N 37°49' W 122°19'0 0.0
2017-Dec-17 05:31N 37°49' W 122°19'0 0.1
2017-Dec-17 05:00N 37°49' W 122°19'0 0.1
2017-Dec-17 04:30N 37°49' W 122°19'0 0.1
2017-Dec-17 04:00N 37°49' W 122°19'0 0.1
2017-Dec-17 03:31N 37°49' W 122°19'0 0.1
2017-Dec-17 03:00N 37°49' W 122°19'0 0.0
2017-Dec-17 02:31N 37°49' W 122°19'0 0.0
2017-Dec-17 02:01N 37°49' W 122°19'0 0.0
2017-Dec-17 01:31N 37°49' W 122°19'0 0.1
2017-Dec-17 01:00N 37°49' W 122°19'0 0.1
2017-Dec-17 00:30N 37°49' W 122°19'1 1.9
2017-Dec-17 00:00N 37°49' W 122°20'0 0.2
2017-Dec-16 23:31N 37°49' W 122°20'0 0.4
2017-Dec-16 23:00N 37°49' W 122°19'0 0.0
2017-Dec-16 22:30N 37°49' W 122°19'0 0.0
2017-Dec-16 22:00N 37°49' W 122°19'0 0.0
2017-Dec-16 21:30N 37°49' W 122°19'0 0.0
2017-Dec-16 21:01N 37°49' W 122°19'0 0.0
2017-Dec-16 20:31N 37°49' W 122°19'0 0.0
2017-Dec-16 20:00N 37°49' W 122°19'1 1.5
2017-Dec-16 19:30N 37°49' W 122°20'5 9.4
2017-Dec-16 19:01N 37°52' W 122°24'3 6.9
2017-Dec-16 18:31N 37°56' W 122°25'0 0.5
2017-Dec-16 18:00N 37°56' W 122°25'0 0.1
2017-Dec-16 17:30N 37°56' W 122°25'0 0.0
2017-Dec-16 17:00N 37°56' W 122°25'0 0.0
2017-Dec-16 16:30N 37°56' W 122°25'0 0.0
2017-Dec-16 16:00N 37°56' W 122°25'0 0.0
2017-Dec-16 15:30N 37°56' W 122°25'0 0.0
2017-Dec-16 15:01N 37°56' W 122°25'0 0.0
2017-Dec-16 14:30N 37°56' W 122°25'0 0.9
2017-Dec-16 14:00N 37°55' W 122°25'0 0.1
2017-Dec-16 13:30N 37°55' W 122°25'0 0.0
2017-Dec-16 13:00N 37°55' W 122°25'4 8.0
2017-Dec-16 12:31N 37°51' W 122°23'510.1
2017-Dec-16 12:01N 37°48' W 122°19'0 0.6
2017-Dec-16 11:30N 37°48' W 122°19'0 0.0
2017-Dec-16 11:00N 37°48' W 122°19'1 1.4
2017-Dec-16 10:30N 37°48' W 122°18'0 0.4
2017-Dec-16 10:00N 37°47' W 122°18'2 5.0
2017-Dec-16 09:30N 37°48' W 122°21'0 0.8
2017-Dec-16 09:00N 37°48' W 122°21'0 0.0
2017-Dec-16 08:31N 37°48' W 122°21'1 2.3
2017-Dec-16 08:01N 37°48' W 122°19'0 0.2
2017-Dec-16 07:30N 37°48' W 122°19'1 2.3
2017-Dec-16 07:01N 37°48' W 122°21'2 4.2
2017-Dec-16 06:31N 37°49' W 122°19'0 0.0
2017-Dec-16 06:01N 37°49' W 122°19'0 0.0
2017-Dec-16 05:30N 37°49' W 122°19'0 0.0
2017-Dec-16 05:00N 37°49' W 122°19'2 3.7
2017-Dec-16 04:30N 37°49' W 122°21'611.6
2017-Dec-16 04:01N 37°54' W 122°25'3 5.1
2017-Dec-16 03:30N 37°54' W 122°22'0 0.5
2017-Dec-16 03:00N 37°54' W 122°22'3 6.0
2017-Dec-16 02:30N 37°55' W 122°25'1 2.6
2017-Dec-16 02:00N 37°54' W 122°25'1 2.4
2017-Dec-16 01:31N 37°55' W 122°23'0 0.0
2017-Dec-16 01:00N 37°55' W 122°23'0 0.0
2017-Dec-16 00:30N 37°55' W 122°23'2 3.3
2017-Dec-16 00:00N 37°55' W 122°25'3 5.4
2017-Dec-15 23:31N 37°55' W 122°22'0 0.0
2017-Dec-15 23:00N 37°54' W 122°22'0 0.0
2017-Dec-15 22:30N 37°55' W 122°22'1 1.4
2017-Dec-15 22:00N 37°54' W 122°23'3 6.6
2017-Dec-15 21:30N 37°51' W 122°23'4 7.4
2017-Dec-15 21:00N 37°49' W 122°19'0 0.1
2017-Dec-15 20:30N 37°49' W 122°19'0 0.1
2017-Dec-15 20:00N 37°49' W 122°19'0 0.0
2017-Dec-15 19:31N 37°49' W 122°19'0 0.0
2017-Dec-15 19:00N 37°49' W 122°19'2 3.9
2017-Dec-15 18:31N 37°47' W 122°18'0 0.3
2017-Dec-15 18:00N 37°48' W 122°18'2 5.0
2017-Dec-15 17:31N 37°48' W 122°21'0 0.3
2017-Dec-15 17:01N 37°48' W 122°21'2 4.0
2017-Dec-15 16:31N 37°49' W 122°19'0 0.1
2017-Dec-15 16:00N 37°49' W 122°19'0 0.0
2017-Dec-15 15:30N 37°49' W 122°19'0 0.0
2017-Dec-15 15:00N 37°49' W 122°19'1 1.9
2017-Dec-15 14:30N 37°49' W 122°20'0 0.0
2017-Dec-15 14:01N 37°49' W 122°20'1 2.8
2017-Dec-15 13:31N 37°48' W 122°21'1 1.2
2017-Dec-15 13:01N 37°48' W 122°21'1 1.9
2017-Dec-15 12:30N 37°48' W 122°19'2 3.1
2017-Dec-15 12:00N 37°48' W 122°18'1 1.8
2017-Dec-15 11:31N 37°48' W 122°19'0 0.3
2017-Dec-15 11:01N 37°48' W 122°19'0 0.0
2017-Dec-15 10:31N 37°48' W 122°19'1 2.2
2017-Dec-15 10:01N 37°48' W 122°20'510.4
2017-Dec-15 09:30N 37°52' W 122°24'3 5.7
2017-Dec-15 09:00N 37°54' W 122°22'0 0.3
2017-Dec-15 08:30N 37°54' W 122°22'1 3.0
2017-Dec-15 08:00N 37°54' W 122°24'0 0.1
2017-Dec-15 07:30N 37°54' W 122°24'0 0.5
2017-Dec-15 07:00N 37°55' W 122°23'0 0.0
2017-Dec-15 06:30N 37°55' W 122°23'0 0.0
2017-Dec-15 06:00N 37°55' W 122°23'0 0.0
2017-Dec-15 05:30N 37°55' W 122°23'0 0.0
2017-Dec-15 05:01N 37°55' W 122°23'2 4.2
2017-Dec-15 04:30N 37°53' W 122°24'510.6
2017-Dec-15 04:00N 37°48' W 122°20'1 0.5
2017-Dec-15 02:30N 37°49' W 122°20'2 1.2
2017-Dec-15 01:00N 37°48' W 122°18'0 0.3
2017-Dec-15 00:30N 37°48' W 122°18'2 0.3
2017-Dec-14 18:31N 37°49' W 122°19'0 0.0
2017-Dec-14 18:00N 37°49' W 122°19'2 3.7
2017-Dec-14 17:31N 37°49' W 122°21'510.5
2017-Dec-14 17:01N 37°53' W 122°25'3 5.2
2017-Dec-14 16:31N 37°55' W 122°25'0 0.1
2017-Dec-14 16:00N 37°55' W 122°25'5 4.9
2017-Dec-14 15:00N 37°51' W 122°23'3 6.6
2017-Dec-14 14:31N 37°49' W 122°20'0 0.4
2017-Dec-14 14:00N 37°49' W 122°19'1 1.7
2017-Dec-14 13:30N 37°49' W 122°19'0 0.1
2017-Dec-14 13:00N 37°49' W 122°19'0 0.1
2017-Dec-14 12:30N 37°49' W 122°19'0 0.0
2017-Dec-14 12:00N 37°49' W 122°19'0 0.0
2017-Dec-14 11:30N 37°49' W 122°19'0 0.0
2017-Dec-14 11:00N 37°49' W 122°19'0 0.0
2017-Dec-14 10:30N 37°49' W 122°19'0 0.0
2017-Dec-14 10:00N 37°49' W 122°19'0 0.0
2017-Dec-14 09:30N 37°49' W 122°19'0 0.0
2017-Dec-14 09:01N 37°49' W 122°19'0 0.0
2017-Dec-14 08:30N 37°49' W 122°19'0 0.0
2017-Dec-14 08:00N 37°49' W 122°19'0 0.0
2017-Dec-14 07:31N 37°49' W 122°19'0 0.0
2017-Dec-14 07:00N 37°49' W 122°19'0 0.0
2017-Dec-14 06:30N 37°49' W 122°19'0 0.0
2017-Dec-14 06:00N 37°49' W 122°19'0 0.0
2017-Dec-14 05:30N 37°49' W 122°19'0 0.0
2017-Dec-14 05:01N 37°49' W 122°19'2 3.1
2017-Dec-14 04:30N 37°48' W 122°19'0 0.0
2017-Dec-14 04:00N 37°48' W 122°19'1 1.8
2017-Dec-14 03:30N 37°48' W 122°20'2 3.9
2017-Dec-14 03:00N 37°47' W 122°23'2 3.8
2017-Dec-14 02:30N 37°48' W 122°21'0 0.1
2017-Dec-14 02:00N 37°48' W 122°21'1 2.0
2017-Dec-14 01:31N 37°48' W 122°19'1 2.1
2017-Dec-14 01:01N 37°48' W 122°21'1 1.7
2017-Dec-14 00:30N 37°49' W 122°19'1 2.4
2017-Dec-14 00:00N 37°48' W 122°21'1 1.8
2017-Dec-13 23:31N 37°48' W 122°22'3 6.8
2017-Dec-13 23:00N 37°51' W 122°24'3 6.5
2017-Dec-13 22:30N 37°55' W 122°23'0 0.0
2017-Dec-13 22:00N 37°55' W 122°23'0 0.0
2017-Dec-13 21:30N 37°55' W 122°23'0 0.0
2017-Dec-13 21:01N 37°55' W 122°23'0 0.0
2017-Dec-13 20:31N 37°55' W 122°23'0 0.0
2017-Dec-13 20:00N 37°55' W 122°23'1 2.7
2017-Dec-13 19:31N 37°55' W 122°25'510.9
2017-Dec-13 19:01N 38°00' W 122°24'510.6
2017-Dec-13 18:30N 38°03' W 122°18'2 2.3
2017-Dec-13 17:45N 38°03' W 122°16'1 2.0
2017-Dec-13 17:29N 38°04' W 122°15'4 6.6
2017-Dec-13 16:53N 38°03' W 122°10'2 0.9
2017-Dec-13 14:35N 38°02' W 122°08'0 0.4
2017-Dec-13 13:54N 38°02' W 122°08'2 1.0
2017-Dec-13 11:54N 38°03' W 122°11'3 8.8
2017-Dec-13 11:30N 38°04' W 122°15'4 8.7
2017-Dec-13 11:00N 38°02' W 122°20'5 9.3
2017-Dec-13 10:30N 37°60' W 122°25'5 9.8
2017-Dec-13 10:00N 37°55' W 122°25'510.1
2017-Dec-13 09:30N 37°51' W 122°22'3 6.3
2017-Dec-13 09:00N 37°49' W 122°19'0 0.0
2017-Dec-13 08:31N 37°49' W 122°19'0 0.0
2017-Dec-13 08:00N 37°49' W 122°19'0 0.0
2017-Dec-13 07:30N 37°49' W 122°19'0 0.0
2017-Dec-13 07:00N 37°49' W 122°19'0 0.0
2017-Dec-13 06:30N 37°49' W 122°19'0 0.0
2017-Dec-13 06:01N 37°49' W 122°19'0 0.0
2017-Dec-13 05:30N 37°49' W 122°19'0 0.0
2017-Dec-13 05:00N 37°49' W 122°19'0 0.0
2017-Dec-13 04:30N 37°49' W 122°19'0 0.0
2017-Dec-13 04:01N 37°49' W 122°19'0 0.0
2017-Dec-13 03:30N 37°49' W 122°19'0 0.0
2017-Dec-13 03:00N 37°49' W 122°19'0 0.0
2017-Dec-13 02:30N 37°49' W 122°19'0 0.0
2017-Dec-13 02:00N 37°49' W 122°19'0 0.0
2017-Dec-13 01:30N 37°49' W 122°19'0 0.0
2017-Dec-13 01:00N 37°49' W 122°19'0 0.0
2017-Dec-13 00:30N 37°49' W 122°19'0 0.0
2017-Dec-13 00:00N 37°49' W 122°19'0 0.0
2017-Dec-12 23:30N 37°49' W 122°19'0 0.1
2017-Dec-12 23:00N 37°49' W 122°19'0 0.1
2017-Dec-12 22:30N 37°49' W 122°19'0 0.0
2017-Dec-12 22:00N 37°49' W 122°19'0 0.0
2017-Dec-12 21:30N 37°49' W 122°19'0 0.0
2017-Dec-12 21:00N 37°49' W 122°19'0 0.1
2017-Dec-12 20:30N 37°49' W 122°19'0 0.0
2017-Dec-12 20:00N 37°49' W 122°19'0 0.1
2017-Dec-12 19:30N 37°49' W 122°19'4 8.1
2017-Dec-12 19:01N 37°49' W 122°24'4 8.9
2017-Dec-12 18:30N 37°49' W 122°29'0 0.8
2017-Dec-12 18:00N 37°49' W 122°29'5 9.3
2017-Dec-12 17:30N 37°53' W 122°25'3 5.7
2017-Dec-12 17:00N 37°55' W 122°25'0 0.0
2017-Dec-12 16:30N 37°55' W 122°25'0 0.1
2017-Dec-12 16:01N 37°55' W 122°25'0 0.4
2017-Dec-12 15:31N 37°55' W 122°25'0 0.0
2017-Dec-12 15:00N 37°55' W 122°25'3 6.5
2017-Dec-12 14:30N 37°58' W 122°26'4 9.0
2017-Dec-12 14:00N 38°02' W 122°22'510.1
2017-Dec-12 13:29N 38°04' W 122°16'1 1.7
2017-Dec-12 12:59N 38°04' W 122°15'3 6.8
2017-Dec-12 12:30N 38°03' W 122°19'510.4
2017-Dec-12 12:00N 38°00' W 122°24'510.6
2017-Dec-12 11:30N 37°55' W 122°25'510.3
2017-Dec-12 11:01N 37°50' W 122°22'3 6.0
2017-Dec-12 10:30N 37°49' W 122°19'0 0.0
2017-Dec-12 10:00N 37°49' W 122°19'0 0.0
2017-Dec-12 09:30N 37°49' W 122°19'0 0.0
2017-Dec-12 09:00N 37°49' W 122°19'0 0.0
2017-Dec-12 08:30N 37°49' W 122°19'0 0.0
2017-Dec-12 08:00N 37°49' W 122°19'0 0.0
2017-Dec-12 07:30N 37°49' W 122°19'0 0.0
2017-Dec-12 07:00N 37°49' W 122°19'0 0.0
2017-Dec-12 06:30N 37°49' W 122°19'0 0.0
2017-Dec-12 06:00N 37°49' W 122°19'0 0.0
2017-Dec-12 05:30N 37°49' W 122°19'0 0.0
2017-Dec-12 05:00N 37°49' W 122°19'0 0.0
2017-Dec-12 04:30N 37°49' W 122°19'0 0.0
2017-Dec-12 04:00N 37°49' W 122°19'0 0.0
2017-Dec-12 03:30N 37°49' W 122°19'0 0.0
2017-Dec-12 03:00N 37°49' W 122°19'0 0.1
2017-Dec-12 02:31N 37°49' W 122°19'2 3.4
2017-Dec-12 02:00N 37°48' W 122°19'1 1.9
2017-Dec-12 01:30N 37°48' W 122°18'1 1.7
2017-Dec-12 01:01N 37°48' W 122°19'1 2.6
2017-Dec-12 00:30N 37°49' W 122°20'1 1.9
2017-Dec-12 00:01N 37°49' W 122°19'0 0.0
2017-Dec-11 23:30N 37°49' W 122°19'0 0.0
2017-Dec-11 23:00N 37°49' W 122°19'0 0.1
2017-Dec-11 22:30N 37°49' W 122°19'0 0.1
2017-Dec-11 22:00N 37°49' W 122°19'0 0.0
2017-Dec-11 21:30N 37°49' W 122°19'0 0.0
2017-Dec-11 21:00N 37°49' W 122°19'0 0.0
2017-Dec-11 20:30N 37°49' W 122°19'0 0.0
2017-Dec-11 20:00N 37°49' W 122°19'0 0.0
2017-Dec-11 19:30N 37°49' W 122°19'0 0.0
2017-Dec-11 19:00N 37°49' W 122°19'0 0.0
2017-Dec-11 18:30N 37°49' W 122°19'0 0.0
2017-Dec-11 18:00N 37°49' W 122°19'0 0.0
2017-Dec-11 17:31N 37°49' W 122°19'2 3.3
2017-Dec-11 17:00N 37°48' W 122°20'1 1.9
2017-Dec-11 16:30N 37°48' W 122°19'1 1.8
2017-Dec-11 16:00N 37°48' W 122°17'1 1.3
2017-Dec-11 15:30N 37°48' W 122°18'2 4.6
2017-Dec-11 15:00N 37°48' W 122°21'1 1.4
2017-Dec-11 14:30N 37°49' W 122°20'1 1.1
2017-Dec-11 14:00N 37°49' W 122°20'1 1.9
2017-Dec-11 13:31N 37°48' W 122°21'0 0.5
2017-Dec-11 13:00N 37°48' W 122°21'2 3.2
2017-Dec-11 12:31N 37°48' W 122°19'1 2.2
2017-Dec-11 12:01N 37°47' W 122°17'1 1.7
2017-Dec-11 11:31N 37°48' W 122°18'0 0.9
2017-Dec-11 11:01N 37°48' W 122°19'0 0.8
2017-Dec-11 10:31N 37°48' W 122°18'0 0.0
2017-Dec-11 10:01N 37°48' W 122°18'0 0.0
2017-Dec-11 09:30N 37°48' W 122°18'0 0.0
2017-Dec-11 09:00N 37°48' W 122°18'0 0.0
2017-Dec-11 08:30N 37°48' W 122°18'0 0.0
2017-Dec-11 08:00N 37°48' W 122°18'0 0.0
2017-Dec-11 07:31N 37°48' W 122°18'0 0.0
2017-Dec-11 07:01N 37°48' W 122°18'0 0.0
2017-Dec-11 06:31N 37°48' W 122°18'0 0.0
2017-Dec-11 06:01N 37°48' W 122°18'0 0.0
2017-Dec-11 05:30N 37°48' W 122°18'1 2.9
2017-Dec-11 05:00N 37°49' W 122°19'3 5.4
2017-Dec-11 04:30N 37°50' W 122°22'4 8.9
2017-Dec-11 04:00N 37°54' W 122°24'2 3.2
2017-Dec-11 03:30N 37°54' W 122°22'1 2.2
2017-Dec-11 03:00N 37°54' W 122°23'0 0.7
2017-Dec-11 02:31N 37°54' W 122°24'0 0.5
2017-Dec-11 02:01N 37°55' W 122°23'0 0.0
2017-Dec-11 01:31N 37°55' W 122°23'0 0.0
2017-Dec-11 01:00N 37°55' W 122°23'0 0.0
2017-Dec-11 00:30N 37°55' W 122°23'0 0.0
2017-Dec-11 00:00N 37°55' W 122°23'0 0.0
2017-Dec-10 23:30N 37°55' W 122°23'0 0.0
2017-Dec-10 23:00N 37°55' W 122°23'4 7.7
2017-Dec-10 22:30N 37°58' W 122°26'611.0
2017-Dec-10 22:00N 38°02' W 122°21'612.9
2017-Dec-10 21:30N 38°04' W 122°14'1011.4
2017-Dec-10 20:36N 38°04' W 122°01'312.1
2017-Dec-10 20:22N 38°03' W 121°57'512.6
2017-Dec-10 20:00N 38°02' W 121°51'4 6.5
2017-Dec-10 19:28N 38°01' W 121°47'0 0.3
2017-Dec-10 18:59N 38°01' W 121°47'2 5.0
2017-Dec-10 18:30N 38°02' W 121°50'3 5.7
2017-Dec-10 18:01N 38°03' W 121°54'1 1.1
2017-Dec-10 17:30N 38°03' W 121°54'2 1.5
2017-Dec-10 16:12N 38°02' W 121°52'0 1.3
2017-Dec-10 16:00N 38°02' W 121°52'0 0.0
2017-Dec-10 15:30N 38°02' W 121°52'0 0.0
2017-Dec-10 14:58N 38°02' W 121°52'0 0.0
2017-Dec-10 14:30N 38°02' W 121°52'1 1.4
2017-Dec-10 13:38N 38°02' W 121°53'1 9.6
2017-Dec-10 13:31N 38°03' W 121°55'711.0
2017-Dec-10 12:54N 38°04' W 122°03'4 6.9
2017-Dec-10 12:16N 38°02' W 122°08'0 0.6
2017-Dec-10 12:00N 38°02' W 122°08'1 2.7
2017-Dec-10 11:31N 38°02' W 122°10'2 3.6
2017-Dec-10 11:00N 38°02' W 122°07'3 0.5
2017-Dec-10 06:00N 38°03' W 122°11'4 8.0
2017-Dec-10 05:30N 38°04' W 122°15'4 8.9
2017-Dec-10 05:01N 38°02' W 122°21'5 8.8
2017-Dec-10 04:30N 37°59' W 122°25'4 8.4
2017-Dec-10 04:01N 37°55' W 122°25'0 0.6
2017-Dec-10 03:31N 37°55' W 122°25'0 0.0
2017-Dec-10 03:00N 37°55' W 122°25'1 2.1
2017-Dec-10 02:30N 37°55' W 122°26'0 0.1
2017-Dec-10 02:00N 37°55' W 122°26'2 3.9
2017-Dec-10 01:30N 37°54' W 122°23'0 0.3
2017-Dec-10 01:01N 37°55' W 122°23'0 0.0
2017-Dec-10 00:31N 37°55' W 122°23'0 0.0
2017-Dec-10 00:01N 37°55' W 122°23'1 2.3
2017-Dec-09 23:30N 37°55' W 122°22'0 0.4
2017-Dec-09 23:01N 37°55' W 122°22'1 2.1
2017-Dec-09 22:31N 37°54' W 122°23'4 8.7
2017-Dec-09 22:00N 37°58' W 122°26'610.7
2017-Dec-09 21:28N 38°02' W 122°21'612.5
2017-Dec-09 20:59N 38°04' W 122°14'4 0.3
2017-Dec-09 07:09N 38°02' W 122°08'0 0.0
2017-Dec-09 04:46N 38°02' W 122°08'0 0.0
2017-Dec-09 02:28N 38°02' W 122°08'0 0.3
2017-Dec-09 02:00N 38°02' W 122°08'1 0.9
2017-Dec-09 01:23N 38°02' W 122°07'0 0.0
2017-Dec-09 00:56N 38°02' W 122°07'0 0.1
2017-Dec-09 00:30N 38°02' W 122°08'1 1.9
2017-Dec-08 23:45N 38°02' W 122°09'1 0.2
2017-Dec-08 19:50N 38°02' W 122°08'0 0.0
2017-Dec-08 19:21N 38°02' W 122°08'0 0.0
2017-Dec-08 17:46N 38°02' W 122°08'2 7.6
2017-Dec-08 17:30N 38°03' W 122°11'4 8.0
2017-Dec-08 17:00N 38°03' W 122°16'0 0.0
2017-Dec-08 16:30N 38°03' W 122°16'0 0.2
2017-Dec-08 16:00N 38°03' W 122°16'2 4.1
2017-Dec-08 15:30N 38°03' W 122°18'3 5.8
2017-Dec-08 15:00N 38°02' W 122°22'3 6.2
2017-Dec-08 14:30N 38°00' W 122°25'3 6.2
2017-Dec-08 14:00N 37°57' W 122°27'2 5.1
2017-Dec-08 13:30N 37°55' W 122°26'0 0.3
2017-Dec-08 13:01N 37°55' W 122°26'1 2.9
2017-Dec-08 12:30N 37°56' W 122°26'5 9.5
2017-Dec-08 12:00N 38°01' W 122°24'5 9.9
2017-Dec-08 11:30N 38°03' W 122°18'5 9.2
2017-Dec-08 11:00N 38°03' W 122°12'3 3.7
2017-Dec-08 10:04N 38°02' W 122°08'0 1.9
2017-Dec-08 10:00N 38°02' W 122°08'1 1.4
2017-Dec-08 09:30N 38°02' W 122°09'1 1.5
2017-Dec-08 09:00N 38°02' W 122°08'0 0.0
2017-Dec-08 08:30N 38°02' W 122°08'0 0.0
2017-Dec-08 08:00N 38°02' W 122°08'0 0.0
2017-Dec-08 07:30N 38°02' W 122°08'0 0.0
2017-Dec-08 07:00N 38°02' W 122°08'0 0.0
2017-Dec-08 06:30N 38°02' W 122°08'0 0.0
2017-Dec-08 06:00N 38°02' W 122°08'0 0.0
2017-Dec-08 05:30N 38°02' W 122°08'0 0.0
2017-Dec-08 05:00N 38°02' W 122°08'0 0.0
2017-Dec-08 04:30N 38°02' W 122°08'0 0.0
2017-Dec-08 04:00N 38°02' W 122°08'0 0.0
2017-Dec-08 03:30N 38°02' W 122°08'1 2.1
2017-Dec-08 03:00N 38°02' W 122°09'5 9.1
2017-Dec-08 02:30N 38°04' W 122°15'510.0
2017-Dec-08 02:00N 38°02' W 122°21'5 9.7
2017-Dec-08 01:30N 37°59' W 122°25'5 9.6
2017-Dec-08 01:00N 37°54' W 122°25'611.5
2017-Dec-08 00:30N 37°49' W 122°21'1 2.1
2017-Dec-08 00:00N 37°49' W 122°20'2 3.1
2017-Dec-07 23:30N 37°48' W 122°19'1 1.6
2017-Dec-07 23:00N 37°48' W 122°20'2 3.3
2017-Dec-07 22:31N 37°48' W 122°22'3 5.5
2017-Dec-07 22:00N 37°49' W 122°19'0 0.0
2017-Dec-07 21:30N 37°49' W 122°19'0 0.1
2017-Dec-07 21:00N 37°49' W 122°19'0 0.1
2017-Dec-07 20:30N 37°49' W 122°19'0 0.0
2017-Dec-07 20:00N 37°49' W 122°19'0 0.0
2017-Dec-07 19:30N 37°49' W 122°19'0 0.0
2017-Dec-07 19:00N 37°49' W 122°19'0 0.0
2017-Dec-07 18:30N 37°49' W 122°19'0 0.0
2017-Dec-07 18:00N 37°49' W 122°19'0 0.0
2017-Dec-07 17:30N 37°49' W 122°19'0 0.1
2017-Dec-07 17:00N 37°49' W 122°19'0 0.1
2017-Dec-07 16:30N 37°49' W 122°19'0 0.0
2017-Dec-07 16:00N 37°49' W 122°19'0 0.0
2017-Dec-07 15:30N 37°49' W 122°19'0 0.0
2017-Dec-07 15:00N 37°49' W 122°19'0 0.0
2017-Dec-07 14:30N 37°49' W 122°19'0 0.0
2017-Dec-07 14:00N 37°49' W 122°19'0 0.0
2017-Dec-07 13:30N 37°49' W 122°19'  
Track history (hours):
 
Tides and Currents Weather Stations Pressure Air Temp Water Temp Dewpoint Dewpoint Depression Visibility Wind Speed Wind Dir Waves Ship Positions

Liberty

Owner: AMNAV Maritime Corporation, Oakland, CA. More information available from US FCC via Universal Licensing System and Coast Guard Vessel Documentation Center.

Last reported at 2017-Dec-17 13:30 UTC. Time now 2017-Dec-17 13:54 UTC.
Position N 37°49' W 122°19'.

Length 20 m; draft 4.6 m.

Type: Towing. MMSI: 366998510.

Date/timePositionNaut miles runAvg speedWind from/ knotsBaromVisibWave heightAir tempDewpointWater temp
2017-Dec-17 13:30N 37°49' W 122°19'0 0.1
2017-Dec-17 13:00N 37°49' W 122°19'0 0.0
2017-Dec-17 12:30N 37°49' W 122°19'0 0.0
2017-Dec-17 12:00N 37°49' W 122°19'0 0.1
2017-Dec-17 11:31N 37°49' W 122°19'0 0.1
2017-Dec-17 11:00N 37°49' W 122°19'0 0.0
2017-Dec-17 10:30N 37°49' W 122°19'0 0.1
2017-Dec-17 10:00N 37°49' W 122°19'0 0.1
2017-Dec-17 09:30N 37°49' W 122°19'0 0.0
2017-Dec-17 09:00N 37°49' W 122°19'0 0.0
2017-Dec-17 08:31N 37°49' W 122°19'0 0.0
2017-Dec-17 08:00N 37°49' W 122°19'0 0.0
2017-Dec-17 07:30N 37°49' W 122°19'0 0.1
2017-Dec-17 07:01N 37°49' W 122°19'0 0.0
2017-Dec-17 06:31N 37°49' W 122°19'0 0.0
2017-Dec-17 06:01N 37°49' W 122°19'0 0.0
2017-Dec-17 05:31N 37°49' W 122°19'0 0.1
2017-Dec-17 05:00N 37°49' W 122°19'0 0.1
2017-Dec-17 04:30N 37°49' W 122°19'0 0.1
2017-Dec-17 04:00N 37°49' W 122°19'0 0.1
2017-Dec-17 03:31N 37°49' W 122°19'0 0.1
2017-Dec-17 03:00N 37°49' W 122°19'0 0.0
2017-Dec-17 02:31N 37°49' W 122°19'0 0.0
2017-Dec-17 02:01N 37°49' W 122°19'0 0.0
2017-Dec-17 01:31N 37°49' W 122°19'0 0.1
2017-Dec-17 01:00N 37°49' W 122°19'0 0.1
2017-Dec-17 00:30N 37°49' W 122°19'1 1.9
2017-Dec-17 00:00N 37°49' W 122°20'0 0.2
2017-Dec-16 23:31N 37°49' W 122°20'0 0.4
2017-Dec-16 23:00N 37°49' W 122°19'0 0.0
2017-Dec-16 22:30N 37°49' W 122°19'0 0.0
2017-Dec-16 22:00N 37°49' W 122°19'0 0.0
2017-Dec-16 21:30N 37°49' W 122°19'0 0.0
2017-Dec-16 21:01N 37°49' W 122°19'0 0.0
2017-Dec-16 20:31N 37°49' W 122°19'0 0.0
2017-Dec-16 20:00N 37°49' W 122°19'1 1.5
2017-Dec-16 19:30N 37°49' W 122°20'5 9.4
2017-Dec-16 19:01N 37°52' W 122°24'3 6.9
2017-Dec-16 18:31N 37°56' W 122°25'0 0.5
2017-Dec-16 18:00N 37°56' W 122°25'0 0.1
2017-Dec-16 17:30N 37°56' W 122°25'0 0.0
2017-Dec-16 17:00N 37°56' W 122°25'0 0.0
2017-Dec-16 16:30N 37°56' W 122°25'0 0.0
2017-Dec-16 16:00N 37°56' W 122°25'0 0.0
2017-Dec-16 15:30N 37°56' W 122°25'0 0.0
2017-Dec-16 15:01N 37°56' W 122°25'0 0.0
2017-Dec-16 14:30N 37°56' W 122°25'0 0.9
2017-Dec-16 14:00N 37°55' W 122°25'0 0.1
2017-Dec-16 13:30N 37°55' W 122°25'0 0.0
2017-Dec-16 13:00N 37°55' W 122°25'4 8.0
2017-Dec-16 12:31N 37°51' W 122°23'510.1
2017-Dec-16 12:01N 37°48' W 122°19'0 0.6
2017-Dec-16 11:30N 37°48' W 122°19'0 0.0
2017-Dec-16 11:00N 37°48' W 122°19'1 1.4
2017-Dec-16 10:30N 37°48' W 122°18'0 0.4
2017-Dec-16 10:00N 37°47' W 122°18'2 5.0
2017-Dec-16 09:30N 37°48' W 122°21'0 0.8
2017-Dec-16 09:00N 37°48' W 122°21'0 0.0
2017-Dec-16 08:31N 37°48' W 122°21'1 2.3
2017-Dec-16 08:01N 37°48' W 122°19'0 0.2
2017-Dec-16 07:30N 37°48' W 122°19'1 2.3
2017-Dec-16 07:01N 37°48' W 122°21'2 4.2
2017-Dec-16 06:31N 37°49' W 122°19'0 0.0
2017-Dec-16 06:01N 37°49' W 122°19'0 0.0
2017-Dec-16 05:30N 37°49' W 122°19'0 0.0
2017-Dec-16 05:00N 37°49' W 122°19'2 3.7
2017-Dec-16 04:30N 37°49' W 122°21'611.6
2017-Dec-16 04:01N 37°54' W 122°25'3 5.1
2017-Dec-16 03:30N 37°54' W 122°22'0 0.5
2017-Dec-16 03:00N 37°54' W 122°22'3 6.0
2017-Dec-16 02:30N 37°55' W 122°25'1 2.6
2017-Dec-16 02:00N 37°54' W 122°25'1 2.4
2017-Dec-16 01:31N 37°55' W 122°23'0 0.0
2017-Dec-16 01:00N 37°55' W 122°23'0 0.0
2017-Dec-16 00:30N 37°55' W 122°23'2 3.3
2017-Dec-16 00:00N 37°55' W 122°25'3 5.4
2017-Dec-15 23:31N 37°55' W 122°22'0 0.0
2017-Dec-15 23:00N 37°54' W 122°22'0 0.0
2017-Dec-15 22:30N 37°55' W 122°22'1 1.4
2017-Dec-15 22:00N 37°54' W 122°23'3 6.6
2017-Dec-15 21:30N 37°51' W 122°23'4 7.4
2017-Dec-15 21:00N 37°49' W 122°19'0 0.1
2017-Dec-15 20:30N 37°49' W 122°19'0 0.1
2017-Dec-15 20:00N 37°49' W 122°19'0 0.0
2017-Dec-15 19:31N 37°49' W 122°19'0 0.0
2017-Dec-15 19:00N 37°49' W 122°19'2 3.9
2017-Dec-15 18:31N 37°47' W 122°18'0 0.3
2017-Dec-15 18:00N 37°48' W 122°18'2 5.0
2017-Dec-15 17:31N 37°48' W 122°21'0 0.3
2017-Dec-15 17:01N 37°48' W 122°21'2 4.0
2017-Dec-15 16:31N 37°49' W 122°19'0 0.1
2017-Dec-15 16:00N 37°49' W 122°19'0 0.0
2017-Dec-15 15:30N 37°49' W 122°19'0 0.0
2017-Dec-15 15:00N 37°49' W 122°19'1 1.9
2017-Dec-15 14:30N 37°49' W 122°20'0 0.0
2017-Dec-15 14:01N 37°49' W 122°20'1 2.8
2017-Dec-15 13:31N 37°48' W 122°21'1 1.2
2017-Dec-15 13:01N 37°48' W 122°21'1 1.9
2017-Dec-15 12:30N 37°48' W 122°19'2 3.1
2017-Dec-15 12:00N 37°48' W 122°18'1 1.8
2017-Dec-15 11:31N 37°48' W 122°19'0 0.3
2017-Dec-15 11:01N 37°48' W 122°19'0 0.0
2017-Dec-15 10:31N 37°48' W 122°19'1 2.2
2017-Dec-15 10:01N 37°48' W 122°20'510.4
2017-Dec-15 09:30N 37°52' W 122°24'3 5.7
2017-Dec-15 09:00N 37°54' W 122°22'0 0.3
2017-Dec-15 08:30N 37°54' W 122°22'1 3.0
2017-Dec-15 08:00N 37°54' W 122°24'0 0.1
2017-Dec-15 07:30N 37°54' W 122°24'0 0.5
2017-Dec-15 07:00N 37°55' W 122°23'0 0.0
2017-Dec-15 06:30N 37°55' W 122°23'0 0.0
2017-Dec-15 06:00N 37°55' W 122°23'0 0.0
2017-Dec-15 05:30N 37°55' W 122°23'0 0.0
2017-Dec-15 05:01N 37°55' W 122°23'2 4.2
2017-Dec-15 04:30N 37°53' W 122°24'510.6
2017-Dec-15 04:00N 37°48' W 122°20'1 0.5
2017-Dec-15 02:30N 37°49' W 122°20'2 1.2
2017-Dec-15 01:00N 37°48' W 122°18'0 0.3
2017-Dec-15 00:30N 37°48' W 122°18'2 0.3
2017-Dec-14 18:31N 37°49' W 122°19'0 0.0
2017-Dec-14 18:00N 37°49' W 122°19'2 3.7
2017-Dec-14 17:31N 37°49' W 122°21'510.5
2017-Dec-14 17:01N 37°53' W 122°25'3 5.2
2017-Dec-14 16:31N 37°55' W 122°25'0 0.1
2017-Dec-14 16:00N 37°55' W 122°25'5 4.9
2017-Dec-14 15:00N 37°51' W 122°23'3 6.6
2017-Dec-14 14:31N 37°49' W 122°20'0 0.4
2017-Dec-14 14:00N 37°49' W 122°19'1 1.7
2017-Dec-14 13:30N 37°49' W 122°19'0 0.1
2017-Dec-14 13:00N 37°49' W 122°19'0 0.1
2017-Dec-14 12:30N 37°49' W 122°19'0 0.0
2017-Dec-14 12:00N 37°49' W 122°19'0 0.0
2017-Dec-14 11:30N 37°49' W 122°19'0 0.0
2017-Dec-14 11:00N 37°49' W 122°19'0 0.0
2017-Dec-14 10:30N 37°49' W 122°19'0 0.0
2017-Dec-14 10:00N 37°49' W 122°19'0 0.0
2017-Dec-14 09:30N 37°49' W 122°19'0 0.0
2017-Dec-14 09:01N 37°49' W 122°19'0 0.0
2017-Dec-14 08:30N 37°49' W 122°19'0 0.0
2017-Dec-14 08:00N 37°49' W 122°19'0 0.0
2017-Dec-14 07:31N 37°49' W 122°19'0 0.0
2017-Dec-14 07:00N 37°49' W 122°19'0 0.0
2017-Dec-14 06:30N 37°49' W 122°19'0 0.0
2017-Dec-14 06:00N 37°49' W 122°19'0 0.0
2017-Dec-14 05:30N 37°49' W 122°19'0 0.0
2017-Dec-14 05:01N 37°49' W 122°19'2 3.1
2017-Dec-14 04:30N 37°48' W 122°19'0 0.0
2017-Dec-14 04:00N 37°48' W 122°19'1 1.8
2017-Dec-14 03:30N 37°48' W 122°20'2 3.9
2017-Dec-14 03:00N 37°47' W 122°23'2 3.8
2017-Dec-14 02:30N 37°48' W 122°21'0 0.1
2017-Dec-14 02:00N 37°48' W 122°21'1 2.0
2017-Dec-14 01:31N 37°48' W 122°19'1 2.1
2017-Dec-14 01:01N 37°48' W 122°21'1 1.7
2017-Dec-14 00:30N 37°49' W 122°19'1 2.4
2017-Dec-14 00:00N 37°48' W 122°21'1 1.8
2017-Dec-13 23:31N 37°48' W 122°22'3 6.8
2017-Dec-13 23:00N 37°51' W 122°24'3 6.5
2017-Dec-13 22:30N 37°55' W 122°23'0 0.0
2017-Dec-13 22:00N 37°55' W 122°23'0 0.0
2017-Dec-13 21:30N 37°55' W 122°23'0 0.0
2017-Dec-13 21:01N 37°55' W 122°23'0 0.0
2017-Dec-13 20:31N 37°55' W 122°23'0 0.0
2017-Dec-13 20:00N 37°55' W 122°23'1 2.7
2017-Dec-13 19:31N 37°55' W 122°25'510.9
2017-Dec-13 19:01N 38°00' W 122°24'510.6
2017-Dec-13 18:30N 38°03' W 122°18'2 2.3
2017-Dec-13 17:45N 38°03' W 122°16'1 2.0
2017-Dec-13 17:29N 38°04' W 122°15'4 6.6
2017-Dec-13 16:53N 38°03' W 122°10'2 0.9
2017-Dec-13 14:35N 38°02' W 122°08'0 0.4
2017-Dec-13 13:54N 38°02' W 122°08'2 1.0
2017-Dec-13 11:54N 38°03' W 122°11'3 8.8
2017-Dec-13 11:30N 38°04' W 122°15'4 8.7
2017-Dec-13 11:00N 38°02' W 122°20'5 9.3
2017-Dec-13 10:30N 37°60' W 122°25'5 9.8
2017-Dec-13 10:00N 37°55' W 122°25'510.1
2017-Dec-13 09:30N 37°51' W 122°22'3 6.3
2017-Dec-13 09:00N 37°49' W 122°19'0 0.0
2017-Dec-13 08:31N 37°49' W 122°19'0 0.0
2017-Dec-13 08:00N 37°49' W 122°19'0 0.0
2017-Dec-13 07:30N 37°49' W 122°19'0 0.0
2017-Dec-13 07:00N 37°49' W 122°19'0 0.0
2017-Dec-13 06:30N 37°49' W 122°19'0 0.0
2017-Dec-13 06:01N 37°49' W 122°19'0 0.0
2017-Dec-13 05:30N 37°49' W 122°19'0 0.0
2017-Dec-13 05:00N 37°49' W 122°19'0 0.0
2017-Dec-13 04:30N 37°49' W 122°19'0 0.0
2017-Dec-13 04:01N 37°49' W 122°19'0 0.0
2017-Dec-13 03:30N 37°49' W 122°19'0 0.0
2017-Dec-13 03:00N 37°49' W 122°19'0 0.0
2017-Dec-13 02:30N 37°49' W 122°19'0 0.0
2017-Dec-13 02:00N 37°49' W 122°19'0 0.0
2017-Dec-13 01:30N 37°49' W 122°19'0 0.0
2017-Dec-13 01:00N 37°49' W 122°19'0 0.0
2017-Dec-13 00:30N 37°49' W 122°19'0 0.0
2017-Dec-13 00:00N 37°49' W 122°19'0 0.0
2017-Dec-12 23:30N 37°49' W 122°19'0 0.1
2017-Dec-12 23:00N 37°49' W 122°19'0 0.1
2017-Dec-12 22:30N 37°49' W 122°19'0 0.0
2017-Dec-12 22:00N 37°49' W 122°19'0 0.0
2017-Dec-12 21:30N 37°49' W 122°19'0 0.0
2017-Dec-12 21:00N 37°49' W 122°19'0 0.1
2017-Dec-12 20:30N 37°49' W 122°19'0 0.0
2017-Dec-12 20:00N 37°49' W 122°19'0 0.1
2017-Dec-12 19:30N 37°49' W 122°19'4 8.1
2017-Dec-12 19:01N 37°49' W 122°24'4 8.9
2017-Dec-12 18:30N 37°49' W 122°29'0 0.8
2017-Dec-12 18:00N 37°49' W 122°29'5 9.3
2017-Dec-12 17:30N 37°53' W 122°25'3 5.7
2017-Dec-12 17:00N 37°55' W 122°25'0 0.0
2017-Dec-12 16:30N 37°55' W 122°25'0 0.1
2017-Dec-12 16:01N 37°55' W 122°25'0 0.4
2017-Dec-12 15:31N 37°55' W 122°25'0 0.0
2017-Dec-12 15:00N 37°55' W 122°25'3 6.5
2017-Dec-12 14:30N 37°58' W 122°26'4 9.0
2017-Dec-12 14:00N 38°02' W 122°22'510.1
2017-Dec-12 13:29N 38°04' W 122°16'1 1.7
2017-Dec-12 12:59N 38°04' W 122°15'3 6.8
2017-Dec-12 12:30N 38°03' W 122°19'510.4
2017-Dec-12 12:00N 38°00' W 122°24'510.6
2017-Dec-12 11:30N 37°55' W 122°25'510.3
2017-Dec-12 11:01N 37°50' W 122°22'3 6.0
2017-Dec-12 10:30N 37°49' W 122°19'0 0.0
2017-Dec-12 10:00N 37°49' W 122°19'0 0.0
2017-Dec-12 09:30N 37°49' W 122°19'0 0.0
2017-Dec-12 09:00N 37°49' W 122°19'0 0.0
2017-Dec-12 08:30N 37°49' W 122°19'0 0.0
2017-Dec-12 08:00N 37°49' W 122°19'0 0.0
2017-Dec-12 07:30N 37°49' W 122°19'0 0.0
2017-Dec-12 07:00N 37°49' W 122°19'0 0.0
2017-Dec-12 06:30N 37°49' W 122°19'0 0.0
2017-Dec-12 06:00N 37°49' W 122°19'0 0.0
2017-Dec-12 05:30N 37°49' W 122°19'0 0.0
2017-Dec-12 05:00N 37°49' W 122°19'0 0.0
2017-Dec-12 04:30N 37°49' W 122°19'0 0.0
2017-Dec-12 04:00N 37°49' W 122°19'0 0.0
2017-Dec-12 03:30N 37°49' W 122°19'0 0.0
2017-Dec-12 03:00N 37°49' W 122°19'0 0.1
2017-Dec-12 02:31N 37°49' W 122°19'2 3.4
2017-Dec-12 02:00N 37°48' W 122°19'1 1.9
2017-Dec-12 01:30N 37°48' W 122°18'1 1.7
2017-Dec-12 01:01N 37°48' W 122°19'1 2.6
2017-Dec-12 00:30N 37°49' W 122°20'1 1.9
2017-Dec-12 00:01N 37°49' W 122°19'0 0.0
2017-Dec-11 23:30N 37°49' W 122°19'0 0.0
2017-Dec-11 23:00N 37°49' W 122°19'0 0.1
2017-Dec-11 22:30N 37°49' W 122°19'0 0.1
2017-Dec-11 22:00N 37°49' W 122°19'0 0.0
2017-Dec-11 21:30N 37°49' W 122°19'0 0.0
2017-Dec-11 21:00N 37°49' W 122°19'0 0.0
2017-Dec-11 20:30N 37°49' W 122°19'0 0.0
2017-Dec-11 20:00N 37°49' W 122°19'0 0.0
2017-Dec-11 19:30N 37°49' W 122°19'0 0.0
2017-Dec-11 19:00N 37°49' W 122°19'0 0.0
2017-Dec-11 18:30N 37°49' W 122°19'0 0.0
2017-Dec-11 18:00N 37°49' W 122°19'0 0.0
2017-Dec-11 17:31N 37°49' W 122°19'2 3.3
2017-Dec-11 17:00N 37°48' W 122°20'1 1.9
2017-Dec-11 16:30N 37°48' W 122°19'1 1.8
2017-Dec-11 16:00N 37°48' W 122°17'1 1.3
2017-Dec-11 15:30N 37°48' W 122°18'2 4.6
2017-Dec-11 15:00N 37°48' W 122°21'1 1.4
2017-Dec-11 14:30N 37°49' W 122°20'1 1.1
2017-Dec-11 14:00N 37°49' W 122°20'1 1.9
2017-Dec-11 13:31N 37°48' W 122°21'0 0.5
2017-Dec-11 13:00N 37°48' W 122°21'2 3.2
2017-Dec-11 12:31N 37°48' W 122°19'1 2.2
2017-Dec-11 12:01N 37°47' W 122°17'1 1.7
2017-Dec-11 11:31N 37°48' W 122°18'0 0.9
2017-Dec-11 11:01N 37°48' W 122°19'0 0.8
2017-Dec-11 10:31N 37°48' W 122°18'0 0.0
2017-Dec-11 10:01N 37°48' W 122°18'0 0.0
2017-Dec-11 09:30N 37°48' W 122°18'0 0.0
2017-Dec-11 09:00N 37°48' W 122°18'0 0.0
2017-Dec-11 08:30N 37°48' W 122°18'0 0.0
2017-Dec-11 08:00N 37°48' W 122°18'0 0.0
2017-Dec-11 07:31N 37°48' W 122°18'0 0.0
2017-Dec-11 07:01N 37°48' W 122°18'0 0.0
2017-Dec-11 06:31N 37°48' W 122°18'0 0.0
2017-Dec-11 06:01N 37°48' W 122°18'0 0.0
2017-Dec-11 05:30N 37°48' W 122°18'1 2.9
2017-Dec-11 05:00N 37°49' W 122°19'3 5.4
2017-Dec-11 04:30N 37°50' W 122°22'4 8.9
2017-Dec-11 04:00N 37°54' W 122°24'2 3.2
2017-Dec-11 03:30N 37°54' W 122°22'1 2.2
2017-Dec-11 03:00N 37°54' W 122°23'0 0.7
2017-Dec-11 02:31N 37°54' W 122°24'0 0.5
2017-Dec-11 02:01N 37°55' W 122°23'0 0.0
2017-Dec-11 01:31N 37°55' W 122°23'0 0.0
2017-Dec-11 01:00N 37°55' W 122°23'0 0.0
2017-Dec-11 00:30N 37°55' W 122°23'0 0.0
2017-Dec-11 00:00N 37°55' W 122°23'0 0.0
2017-Dec-10 23:30N 37°55' W 122°23'0 0.0
2017-Dec-10 23:00N 37°55' W 122°23'4 7.7
2017-Dec-10 22:30N 37°58' W 122°26'611.0
2017-Dec-10 22:00N 38°02' W 122°21'612.9
2017-Dec-10 21:30N 38°04' W 122°14'1011.4
2017-Dec-10 20:36N 38°04' W 122°01'312.1
2017-Dec-10 20:22N 38°03' W 121°57'512.6
2017-Dec-10 20:00N 38°02' W 121°51'4 6.5
2017-Dec-10 19:28N 38°01' W 121°47'0 0.3
2017-Dec-10 18:59N 38°01' W 121°47'2 5.0
2017-Dec-10 18:30N 38°02' W 121°50'3 5.7
2017-Dec-10 18:01N 38°03' W 121°54'1 1.1
2017-Dec-10 17:30N 38°03' W 121°54'2 1.5
2017-Dec-10 16:12N 38°02' W 121°52'0 1.3
2017-Dec-10 16:00N 38°02' W 121°52'0 0.0
2017-Dec-10 15:30N 38°02' W 121°52'0 0.0
2017-Dec-10 14:58N 38°02' W 121°52'0 0.0
2017-Dec-10 14:30N 38°02' W 121°52'1 1.4
2017-Dec-10 13:38N 38°02' W 121°53'1 9.6
2017-Dec-10 13:31N 38°03' W 121°55'711.0
2017-Dec-10 12:54N 38°04' W 122°03'4 6.9
2017-Dec-10 12:16N 38°02' W 122°08'0 0.6
2017-Dec-10 12:00N 38°02' W 122°08'1 2.7
2017-Dec-10 11:31N 38°02' W 122°10'2 3.6
2017-Dec-10 11:00N 38°02' W 122°07'3 0.5
2017-Dec-10 06:00N 38°03' W 122°11'4 8.0
2017-Dec-10 05:30N 38°04' W 122°15'4 8.9
2017-Dec-10 05:01N 38°02' W 122°21'5 8.8
2017-Dec-10 04:30N 37°59' W 122°25'4 8.4
2017-Dec-10 04:01N 37°55' W 122°25'0 0.6
2017-Dec-10 03:31N 37°55' W 122°25'0 0.0
2017-Dec-10 03:00N 37°55' W 122°25'1 2.1
2017-Dec-10 02:30N 37°55' W 122°26'0 0.1
2017-Dec-10 02:00N 37°55' W 122°26'2 3.9
2017-Dec-10 01:30N 37°54' W 122°23'0 0.3
2017-Dec-10 01:01N 37°55' W 122°23'0 0.0
2017-Dec-10 00:31N 37°55' W 122°23'0 0.0
2017-Dec-10 00:01N 37°55' W 122°23'1 2.3
2017-Dec-09 23:30N 37°55' W 122°22'0 0.4
2017-Dec-09 23:01N 37°55' W 122°22'1 2.1
2017-Dec-09 22:31N 37°54' W 122°23'4 8.7
2017-Dec-09 22:00N 37°58' W 122°26'610.7
2017-Dec-09 21:28N 38°02' W 122°21'612.5
2017-Dec-09 20:59N 38°04' W 122°14'4 0.3
2017-Dec-09 07:09N 38°02' W 122°08'0 0.0
2017-Dec-09 04:46N 38°02' W 122°08'0 0.0
2017-Dec-09 02:28N 38°02' W 122°08'0 0.3
2017-Dec-09 02:00N 38°02' W 122°08'1 0.9
2017-Dec-09 01:23N 38°02' W 122°07'0 0.0
2017-Dec-09 00:56N 38°02' W 122°07'0 0.1
2017-Dec-09 00:30N 38°02' W 122°08'1 1.9
2017-Dec-08 23:45N 38°02' W 122°09'1 0.2
2017-Dec-08 19:50N 38°02' W 122°08'0 0.0
2017-Dec-08 19:21N 38°02' W 122°08'0 0.0
2017-Dec-08 17:46N 38°02' W 122°08'2 7.6
2017-Dec-08 17:30N 38°03' W 122°11'4 8.0
2017-Dec-08 17:00N 38°03' W 122°16'0 0.0
2017-Dec-08 16:30N 38°03' W 122°16'0 0.2
2017-Dec-08 16:00N 38°03' W 122°16'2 4.1
2017-Dec-08 15:30N 38°03' W 122°18'3 5.8
2017-Dec-08 15:00N 38°02' W 122°22'3 6.2
2017-Dec-08 14:30N 38°00' W 122°25'3 6.2
2017-Dec-08 14:00N 37°57' W 122°27'2 5.1
2017-Dec-08 13:30N 37°55' W 122°26'0 0.3
2017-Dec-08 13:01N 37°55' W 122°26'1 2.9
2017-Dec-08 12:30N 37°56' W 122°26'5 9.5
2017-Dec-08 12:00N 38°01' W 122°24'5 9.9
2017-Dec-08 11:30N 38°03' W 122°18'5 9.2
2017-Dec-08 11:00N 38°03' W 122°12'3 3.7
2017-Dec-08 10:04N 38°02' W 122°08'0 1.9
2017-Dec-08 10:00N 38°02' W 122°08'1 1.4
2017-Dec-08 09:30N 38°02' W 122°09'1 1.5
2017-Dec-08 09:00N 38°02' W 122°08'0 0.0
2017-Dec-08 08:30N 38°02' W 122°08'0 0.0
2017-Dec-08 08:00N 38°02' W 122°08'0 0.0
2017-Dec-08 07:30N 38°02' W 122°08'0 0.0
2017-Dec-08 07:00N 38°02' W 122°08'0 0.0
2017-Dec-08 06:30N 38°02' W 122°08'0 0.0
2017-Dec-08 06:00N 38°02' W 122°08'0 0.0
2017-Dec-08 05:30N 38°02' W 122°08'0 0.0
2017-Dec-08 05:00N 38°02' W 122°08'0 0.0
2017-Dec-08 04:30N 38°02' W 122°08'0 0.0
2017-Dec-08 04:00N 38°02' W 122°08'0 0.0
2017-Dec-08 03:30N 38°02' W 122°08'1 2.1
2017-Dec-08 03:00N 38°02' W 122°09'5 9.1
2017-Dec-08 02:30N 38°04' W 122°15'510.0
2017-Dec-08 02:00N 38°02' W 122°21'5 9.7
2017-Dec-08 01:30N 37°59' W 122°25'5 9.6
2017-Dec-08 01:00N 37°54' W 122°25'611.5
2017-Dec-08 00:30N 37°49' W 122°21'1 2.1
2017-Dec-08 00:00N 37°49' W 122°20'2 3.1
2017-Dec-07 23:30N 37°48' W 122°19'1 1.6
2017-Dec-07 23:00N 37°48' W 122°20'2 3.3
2017-Dec-07 22:31N 37°48' W 122°22'3 5.5
2017-Dec-07 22:00N 37°49' W 122°19'0 0.0
2017-Dec-07 21:30N 37°49' W 122°19'0 0.1
2017-Dec-07 21:00N 37°49' W 122°19'0 0.1
2017-Dec-07 20:30N 37°49' W 122°19'0 0.0
2017-Dec-07 20:00N 37°49' W 122°19'0 0.0
2017-Dec-07 19:30N 37°49' W 122°19'0 0.0
2017-Dec-07 19:00N 37°49' W 122°19'0 0.0
2017-Dec-07 18:30N 37°49' W 122°19'0 0.0
2017-Dec-07 18:00N 37°49' W 122°19'0 0.0
2017-Dec-07 17:30N 37°49' W 122°19'0 0.1
2017-Dec-07 17:00N 37°49' W 122°19'0 0.1
2017-Dec-07 16:30N 37°49' W 122°19'0 0.0
2017-Dec-07 16:00N 37°49' W 122°19'0 0.0
2017-Dec-07 15:30N 37°49' W 122°19'0 0.0
2017-Dec-07 15:00N 37°49' W 122°19'0 0.0
2017-Dec-07 14:30N 37°49' W 122°19'0 0.0
2017-Dec-07 14:00N 37°49' W 122°19'0 0.0
2017-Dec-07 13:30N 37°49' W 122°19'  

Dump ship's entire track history